Time;durP1;ratioP1;P1;durP2;ratioP2;P2;SDS_P1;SDS_P2;PMS_P1;PMS_P2;Temp;Humidity;BMP_temperature;BMP_pressure;BME280_temperature;BME280_humidity;BME280_pressure;Samples;Min_cycle;Max_cycle;Signal;HPM_P1;HPM_P2
2022/10/10 00:02:10;;;;;;;1.93;0.80;;;;;;;11.77;62.82;100137.31;5053761;28;20052;-82
2022/10/10 00:04:38;;;;;;;2.27;0.87;;;;;;;11.83;62.38;100139.50;5053799;28;20491;-82
2022/10/10 00:07:04;;;;;;;2.05;0.82;;;;;;;11.86;62.33;100132.56;5019364;28;20036;-81
2022/10/10 00:09:29;;;;;;;2.40;0.80;;;;;;;11.89;62.44;100124.47;5053731;28;20021;-84
2022/10/10 00:11:54;;;;;;;2.33;0.90;;;;;;;11.85;62.31;100137.22;5036260;28;20033;-83
2022/10/10 00:14:20;;;;;;;2.85;0.82;;;;;;;11.76;62.55;100125.63;5053687;28;20029;-81
2022/10/10 00:16:46;;;;;;;;;;;;;;;11.82;62.69;100123.47;5053323;28;20033;-82
2022/10/10 00:19:12;;;;;;;1.70;0.70;;;;;;;11.77;62.81;100129.94;5035864;28;19913;-80
2022/10/10 00:21:37;;;;;;;;;;;;;;;11.71;63.30;100126.63;5053898;28;20028;-82
2022/10/10 00:24:03;;;;;;;1.88;0.80;;;;;;;11.67;63.11;100130.38;5035591;28;19916;-84
2022/10/10 00:26:28;;;;;;;2.25;1.00;;;;;;;11.72;63.48;100132.88;5035491;28;20021;-82
2022/10/10 00:28:54;;;;;;;3.50;0.80;;;;;;;11.69;63.27;100131.63;5035514;28;20115;-84
2022/10/10 00:31:19;;;;;;;2.75;0.80;;;;;;;11.60;63.49;100130.97;5035523;28;20032;-85
2022/10/10 00:33:46;;;;;;;2.22;0.70;;;;;;;11.49;63.98;100118.13;5035393;28;20035;-85
2022/10/10 00:36:14;;;;;;;2.10;0.80;;;;;;;11.52;64.17;100126.41;5035225;28;20469;-82
2022/10/10 00:38:40;;;;;;;2.05;0.80;;;;;;;11.54;63.92;100129.59;5035485;28;20029;-85
2022/10/10 00:41:05;;;;;;;2.30;0.93;;;;;;;11.56;63.75;100124.56;5035504;28;20473;-83
2022/10/10 00:43:34;;;;;;;2.75;0.80;;;;;;;11.53;63.89;100128.00;5035479;28;20339;-83
2022/10/10 00:46:01;;;;;;;2.50;0.90;;;;;;;11.43;64.15;100136.63;5053358;28;20082;-83
2022/10/10 00:48:31;;;;;;;2.50;1.08;;;;;;;11.35;64.86;100121.16;5018770;28;20032;-83
2022/10/10 00:51:01;;;;;;;2.58;0.93;;;;;;;11.35;64.79;100123.91;5019227;28;20473;-85
2022/10/10 00:53:35;;;;;;;2.30;0.90;;;;;;;11.40;64.60;100126.38;5053398;28;20051;-81
2022/10/10 00:56:02;;;;;;;2.05;0.75;;;;;;;11.30;65.02;100132.31;5044928;28;20071;-83
2022/10/10 00:58:28;;;;;;;1.90;0.90;;;;;;;11.25;65.50;100124.31;5051493;28;20526;-84
2022/10/10 01:00:54;;;;;;;2.72;1.17;;;;;;;11.29;64.98;100115.16;5051779;28;20074;-85
2022/10/10 01:03:20;;;;;;;1.95;0.70;;;;;;;11.25;65.31;100122.41;5053039;28;20029;-84
2022/10/10 01:05:46;;;;;;;2.40;0.90;;;;;;;11.22;65.57;100117.63;5053071;28;20033;-83
2022/10/10 01:08:13;;;;;;;3.15;0.98;;;;;;;11.36;65.18;100109.91;5051768;28;20106;-82
2022/10/10 01:10:54;;;;;;;2.03;0.80;;;;;;;11.31;65.54;100110.16;5052888;28;20021;-82
2022/10/10 01:13:33;;;;;;;2.15;0.75;;;;;;;11.35;65.17;100113.78;5052912;28;20040;-82
2022/10/10 01:16:13;;;;;;;2.25;0.80;;;;;;;11.27;65.46;100106.53;5053065;28;20531;-84
2022/10/10 01:18:59;;;;;;;2.78;0.90;;;;;;;11.27;65.77;100105.72;5051295;28;20021;-83
2022/10/10 01:21:54;;;;;;;1.35;0.60;;;;;;;11.22;65.62;100100.47;5021296;28;20131;-84
2022/10/10 01:24:57;;;;;;;4.22;0.88;;;;;;;11.32;65.38;100098.13;5053009;28;20035;-84
2022/10/10 01:27:41;;;;;;;2.97;1.00;;;;;;;11.39;65.59;100087.44;5051141;28;20093;-84
2022/10/10 01:30:17;;;;;;;1.75;0.70;;;;;;;11.24;65.84;100092.75;5052583;28;20025;-83
2022/10/10 01:33:15;;;;;;;2.00;0.95;;;;;;;11.28;65.70;100088.25;5034821;28;20177;-83
2022/10/10 01:35:57;;;;;;;2.38;0.88;;;;;;;11.27;66.17;100084.72;5050311;28;20033;-85
2022/10/10 01:38:36;;;;;;;3.75;1.00;;;;;;;11.21;66.41;100086.06;5053181;28;20029;-84
2022/10/10 01:41:07;;;;;;;1.63;0.70;;;;;;;11.14;66.64;100086.63;5052396;28;20408;-84
2022/10/10 01:43:35;;;;;;;3.10;1.02;;;;;;;11.24;66.79;100090.03;5052679;28;20051;-84
2022/10/10 01:46:10;;;;;;;2.80;1.00;;;;;;;11.11;66.87;100075.63;5051269;28;20393;-84
2022/10/10 01:48:37;;;;;;;2.00;0.75;;;;;;;11.17;66.78;100084.34;5052304;28;20025;-84
2022/10/10 01:51:15;;;;;;;3.15;0.95;;;;;;;11.19;66.98;100076.63;5052352;28;20404;-87
2022/10/10 01:53:53;;;;;;;2.25;0.80;;;;;;;11.31;66.77;100073.91;5052474;28;20036;-84
2022/10/10 01:56:46;;;;;;;2.50;0.80;;;;;;;11.26;66.69;100077.69;5052254;28;20049;-83
2022/10/10 01:59:26;;;;;;;4.38;1.35;;;;;;;11.15;67.34;100077.31;5052187;28;20480;-82
2022/10/10 02:02:15;;;;;;;2.53;0.85;;;;;;;11.36;66.64;100077.22;5052189;28;20086;-84
2022/10/10 02:04:57;;;;;;;2.17;0.80;;;;;;;11.20;67.36;100067.31;5036973;28;20037;-84
2022/10/10 02:07:42;;;;;;;2.47;0.90;;;;;;;11.13;67.69;100065.97;5034435;28;20440;-84
2022/10/10 02:10:10;;;;;;;1.90;0.73;;;;;;;11.12;67.83;100064.38;5017829;28;20036;-85
2022/10/10 02:12:38;;;;;;;2.40;0.73;;;;;;;11.08;68.02;100070.81;5051922;28;20025;-83
2022/10/10 02:15:10;;;;;;;3.05;0.98;;;;;;;11.07;68.11;100072.75;5034605;28;20032;-85
2022/10/10 02:17:37;;;;;;;2.35;0.95;;;;;;;11.14;68.04;100058.59;5034521;28;20025;-83
2022/10/10 02:20:05;;;;;;;2.08;0.80;;;;;;;11.02;68.78;100067.53;5052230;28;20087;-85
2022/10/10 02:22:31;;;;;;;2.63;0.82;;;;;;;10.95;69.11;100061.84;5052200;28;20492;-87
2022/10/10 02:24:57;;;;;;;4.68;0.95;;;;;;;11.02;68.91;100062.09;5052081;28;20035;-82
2022/10/10 02:27:31;;;;;;;1.75;0.80;;;;;;;11.08;68.96;100060.72;5051995;28;20502;-82
2022/10/10 02:30:01;;;;;;;2.42;1.05;;;;;;;11.05;68.89;100055.94;5052130;28;20033;-84
2022/10/10 02:32:47;;;;;;;2.00;0.88;;;;;;;10.90;69.81;100053.09;5051891;28;20040;-83
2022/10/10 02:35:19;;;;;;;3.10;0.95;;;;;;;10.98;69.47;100054.94;5047944;28;20028;-83
2022/10/10 02:37:46;;;;;;;3.10;1.00;;;;;;;10.98;69.69;100049.47;5034115;28;20033;-85
2022/10/10 02:40:15;;;;;;;1.95;0.80;;;;;;;10.91;70.01;100050.03;5034346;28;20171;-86
2022/10/10 02:42:41;;;;;;;2.90;1.00;;;;;;;11.00;70.03;100048.00;5037896;28;20036;-84
2022/10/10 02:45:07;;;;;;;3.22;1.05;;;;;;;10.89;70.27;100052.28;5037448;28;20035;-83
2022/10/10 02:47:32;;;;;;;2.40;0.93;;;;;;;11.12;69.43;100042.56;5055782;28;20108;-82
2022/10/10 02:49:58;;;;;;;2.13;0.80;;;;;;;11.06;69.96;100043.91;5055557;28;20098;-82
2022/10/10 02:52:23;;;;;;;2.75;1.00;;;;;;;11.01;70.27;100040.63;5021128;28;20075;-87
2022/10/10 02:54:49;;;;;;;2.77;1.13;;;;;;;11.00;70.46;100026.22;5037723;28;20056;-82
2022/10/10 02:57:14;;;;;;;4.30;1.00;;;;;;;10.89;70.81;100033.22;5055646;28;20283;-86
2022/10/10 02:59:40;;;;;;;4.68;1.10;;;;;;;10.80;71.40;100029.81;5037688;28;20028;-83
2022/10/10 03:02:05;;;;;;;2.35;1.00;;;;;;;10.83;71.41;100027.22;5055437;28;20028;-84
2022/10/10 03:04:31;;;;;;;2.47;0.90;;;;;;;10.94;71.18;100027.56;5037447;28;20032;-84
2022/10/10 03:06:58;;;;;;;4.10;1.15;;;;;;;11.08;70.73;100022.56;5055196;28;20695;-83
2022/10/10 03:09:23;;;;;;;2.53;1.08;;;;;;;10.98;71.17;100028.47;5055676;28;20090;-84
2022/10/10 03:11:48;;;;;;;2.47;0.93;;;;;;;10.83;71.94;100020.97;5036945;28;20424;-84
2022/10/10 03:14:14;;;;;;;2.87;1.33;;;;;;;11.03;71.20;100024.72;5054790;28;20029;-85
2022/10/10 03:16:39;;;;;;;4.93;1.27;;;;;;;11.15;70.94;100011.91;5055352;28;20259;-82
2022/10/10 03:19:07;;;;;;;3.17;1.10;;;;;;;11.01;71.67;100016.91;5054842;28;20744;-83
2022/10/10 03:21:35;;;;;;;3.15;0.93;;;;;;;11.00;71.67;100015.31;5055183;28;20021;-83
2022/10/10 03:24:00;;;;;;;2.88;1.20;;;;;;;10.92;71.87;100018.94;5054790;28;20033;-82
2022/10/10 03:26:25;;;;;;;4.75;1.30;;;;;;;10.97;71.87;100015.19;5020194;28;20044;-82
2022/10/10 03:28:51;;;;;;;2.87;0.87;;;;;;;11.06;71.68;100008.50;5036912;28;20482;-82
2022/10/10 03:31:16;;;;;;;2.47;1.40;;;;;;;11.20;70.99;100010.09;5036407;28;20282;-80
2022/10/10 03:33:42;;;;;;;4.80;1.20;;;;;;;11.33;70.77;100011.69;5036936;28;20102;-82
2022/10/10 03:36:07;;;;;;;3.38;1.00;;;;;;;10.99;72.38;100008.28;5036693;28;20028;-82
2022/10/10 03:38:33;;;;;;;3.25;0.98;;;;;;;10.98;72.26;100008.63;5036654;28;20017;-83
2022/10/10 03:40:58;;;;;;;;;;;;;;;10.91;72.63;100006.44;5054936;28;20035;-84
2022/10/10 03:43:25;;;;;;;3.15;0.90;;;;;;;10.98;72.17;100009.41;5054821;28;19909;-85
2022/10/10 03:45:51;;;;;;;3.03;0.93;;;;;;;10.93;72.94;100006.91;5054124;28;20032;-82
2022/10/10 03:48:16;;;;;;;2.07;0.80;;;;;;;11.11;72.13;100004.78;5055605;28;20020;-87
2022/10/10 03:50:41;;;;;;;3.00;1.30;;;;;;;11.19;71.85;100005.78;5055123;28;20032;-87
2022/10/10 03:53:07;;;;;;;2.07;0.90;;;;;;;10.95;72.65;100007.38;5056284;28;20260;-87
2022/10/10 03:55:33;;;;;;;3.67;1.20;;;;;;;11.09;72.22;100004.31;5042624;28;20310;-86
2022/10/10 03:57:58;;;;;;;5.13;1.25;;;;;;;11.03;72.64;100003.72;5054131;28;20028;-87
2022/10/10 04:00:24;;;;;;;2.88;0.85;;;;;;;10.95;73.02;100006.56;5055104;28;20025;-89
2022/10/10 04:02:49;;;;;;;3.53;1.10;;;;;;;10.91;73.30;100001.00;5055584;28;20090;-88
2022/10/10 04:05:16;;;;;;;2.78;1.25;;;;;;;10.76;73.96;99997.03;5056382;28;20021;-88
2022/10/10 04:07:41;;;;;;;2.53;1.13;;;;;;;10.74;74.25;100001.19;5055631;28;20548;-91
2022/10/10 04:10:08;;;;;;;5.53;1.00;;;;;;;10.61;74.75;100003.13;5055549;28;20068;-87
2022/10/10 04:12:34;;;;;;;3.17;1.00;;;;;;;10.72;74.48;99998.81;5055189;28;20151;-87
2022/10/10 04:15:00;;;;;;;2.45;1.08;;;;;;;10.88;74.17;100007.13;5054922;28;20445;-87
2022/10/10 04:17:26;;;;;;;4.13;1.35;;;;;;;10.65;74.82;99989.63;5055874;28;20028;-87
2022/10/10 04:19:51;;;;;;;4.30;1.37;;;;;;;10.75;74.65;100000.06;5055723;28;20024;-88
2022/10/10 04:22:17;;;;;;;4.37;1.00;;;;;;;10.75;74.67;99995.44;5055512;28;20017;-89
2022/10/10 04:24:42;;;;;;;2.77;1.10;;;;;;;10.78;74.79;99996.69;5056301;28;20374;-89
2022/10/10 04:27:08;;;;;;;2.30;1.00;;;;;;;10.79;74.62;99995.53;5056313;28;20326;-89
2022/10/10 04:29:34;;;;;;;3.28;1.00;;;;;;;10.91;74.52;99997.47;5054385;28;20032;-90
2022/10/10 04:31:59;;;;;;;3.00;1.17;;;;;;;11.05;73.75;99987.81;5055203;28;20024;-90
2022/10/10 04:34:24;;;;;;;3.28;1.35;;;;;;;10.96;74.35;99992.63;5054886;28;20496;-88
2022/10/10 04:36:50;;;;;;;3.92;1.30;;;;;;;11.02;74.31;99988.53;5053936;28;20074;-92
2022/10/10 04:39:15;;;;;;;2.97;1.30;;;;;;;10.83;74.98;99980.91;5053648;28;20375;-89
2022/10/10 04:41:41;;;;;;;4.27;1.23;;;;;;;11.03;74.28;99981.94;5054995;28;20028;-90
2022/10/10 04:44:06;;;;;;;2.87;1.20;;;;;;;11.01;74.41;99973.31;5054238;28;20259;-87
2022/10/10 04:46:31;;;;;;;4.00;1.10;;;;;;;11.07;74.34;99984.75;5054435;28;20366;-87
2022/10/10 04:48:57;;;;;;;2.80;1.17;;;;;;;11.06;74.32;99983.19;5053325;28;20318;-87
2022/10/10 04:51:22;;;;;;;4.13;1.20;;;;;;;10.96;74.96;99995.34;5054514;28;20474;-88
2022/10/10 04:53:48;;;;;;;3.55;1.40;;;;;;;10.84;75.05;99989.88;5054292;28;20601;-86
2022/10/10 04:56:13;;;;;;;3.13;1.23;;;;;;;10.95;74.80;99988.31;5052458;28;20068;-88
2022/10/10 04:58:38;;;;;;;5.33;1.13;;;;;;;10.83;75.56;99988.28;5052641;28;20032;-87
2022/10/10 05:01:04;;;;;;;2.90;1.23;;;;;;;10.69;76.29;99991.31;5054071;28;20788;-87
2022/10/10 05:03:30;;;;;;;3.38;1.50;;;;;;;10.66;76.61;99980.31;5053119;28;20174;-86
2022/10/10 05:05:55;;;;;;;2.20;0.90;;;;;;;10.67;76.54;99990.06;5054558;28;20033;-88
2022/10/10 05:08:21;;;;;;;3.43;1.10;;;;;;;10.62;76.89;99984.84;5052774;28;20356;-87
2022/10/10 05:10:50;;;;;;;4.28;1.02;;;;;;;10.66;76.69;99983.03;5054301;28;20072;-85
2022/10/10 05:13:18;;;;;;;3.53;1.20;;;;;;;10.59;77.09;99988.25;5054345;28;20028;-86
2022/10/10 05:15:44;;;;;;;2.17;0.95;;;;;;;10.59;77.26;99988.25;5057188;28;20017;-88
2022/10/10 05:18:09;;;;;;;3.83;1.20;;;;;;;10.59;77.17;99982.81;5056052;28;20021;-86
2022/10/10 05:20:36;;;;;;;4.05;1.17;;;;;;;10.58;77.25;99982.00;5054111;28;20033;-86
2022/10/10 05:23:02;;;;;;;3.80;1.33;;;;;;;10.61;77.08;99991.44;5056626;28;20041;-89
2022/10/10 05:25:28;;;;;;;3.30;1.20;;;;;;;10.63;76.98;99981.78;5055508;28;20029;-87
2022/10/10 05:27:53;;;;;;;4.00;1.27;;;;;;;10.59;77.58;99985.53;5056259;28;20027;-86
2022/10/10 05:30:19;;;;;;;3.60;1.08;;;;;;;10.56;77.46;99981.53;5057127;28;20028;-88
2022/10/10 05:32:44;;;;;;;3.20;1.08;;;;;;;10.50;78.21;99983.69;5058801;28;20028;-88
2022/10/10 05:35:09;;;;;;;3.57;1.27;;;;;;;10.52;77.81;99981.44;5055721;28;20024;-88
2022/10/10 05:37:35;;;;;;;3.10;1.20;;;;;;;10.52;77.97;99975.97;5056732;28;20035;-88
2022/10/10 05:40:00;;;;;;;3.28;1.27;;;;;;;10.53;78.27;99988.47;5056271;28;20021;-88
2022/10/10 05:42:26;;;;;;;3.13;1.20;;;;;;;10.61;77.98;99992.22;5057100;28;20451;-87
2022/10/10 05:44:51;;;;;;;6.25;1.65;;;;;;;10.59;78.13;99983.59;5059450;28;20115;-89
2022/10/10 05:47:17;;;;;;;4.97;1.23;;;;;;;10.59;78.70;99982.81;5056185;28;20056;-89
2022/10/10 05:49:42;;;;;;;12.80;1.77;;;;;;;10.53;78.80;99984.94;5059860;28;20271;-86
2022/10/10 05:52:08;;;;;;;4.28;1.25;;;;;;;10.50;78.60;99983.69;5055303;28;20053;-88
2022/10/10 05:54:34;;;;;;;4.53;1.50;;;;;;;10.55;78.71;99988.13;5058459;28;20130;-87
2022/10/10 05:56:59;;;;;;;4.13;1.13;;;;;;;10.53;79.02;99991.19;5059285;28;20409;-88
2022/10/10 05:59:24;;;;;;;4.07;1.45;;;;;;;10.48;79.36;99988.69;5056693;28;20062;-89
2022/10/10 06:01:50;;;;;;;3.63;1.38;;;;;;;10.64;79.04;99993.47;5039049;28;20033;-88
2022/10/10 06:04:16;;;;;;;4.95;1.45;;;;;;;10.59;78.81;99990.97;5040467;28;20156;-87
2022/10/10 06:06:41;;;;;;;3.95;1.30;;;;;;;10.55;78.99;99986.19;5042973;28;20085;-86
2022/10/10 06:09:07;;;;;;;3.08;1.35;;;;;;;10.54;79.40;99981.88;5043745;28;20091;-88
2022/10/10 06:11:33;;;;;;;3.90;1.27;;;;;;;10.73;78.60;99989.50;5057559;28;20029;-85
2022/10/10 06:13:58;;;;;;;3.97;1.20;;;;;;;10.62;78.99;99990.31;5058404;28;20029;-86
2022/10/10 06:16:25;;;;;;;3.10;1.20;;;;;;;10.65;79.00;99992.34;5025856;28;20037;-89
2022/10/10 06:18:52;;;;;;;4.85;1.50;;;;;;;10.64;79.40;99996.19;5044039;28;20025;-88
2022/10/10 06:21:17;;;;;;;;;;;;;;;10.65;79.36;99997.78;5060632;28;20032;-86
2022/10/10 06:23:43;;;;;;;5.60;1.50;;;;;;;10.77;78.79;100000.53;5063199;28;19908;-89
2022/10/10 06:26:09;;;;;;;6.63;1.20;;;;;;;10.74;78.83;99995.75;5047584;28;20032;-87
2022/10/10 06:28:35;;;;;;;4.20;1.50;;;;;;;10.78;78.80;99997.47;5042388;28;20021;-86
2022/10/10 06:31:02;;;;;;;4.03;1.00;;;;;;;10.75;79.10;100002.78;5063940;28;20039;-88
2022/10/10 06:33:28;;;;;;;4.43;1.50;;;;;;;10.94;78.47;100000.34;5043679;28;20047;-88
2022/10/10 06:35:54;;;;;;;3.72;1.42;;;;;;;10.87;78.86;100010.19;5066021;28;20055;-86
2022/10/10 06:38:21;;;;;;;4.78;1.45;;;;;;;10.87;79.25;100010.19;5043297;28;20025;-89
2022/10/10 06:40:47;;;;;;;3.67;1.40;;;;;;;10.91;79.08;100016.53;5065112;28;20040;-91
2022/10/10 06:43:14;;;;;;;3.67;1.20;;;;;;;10.94;78.95;100016.69;5049096;28;20075;-87
2022/10/10 06:45:45;;;;;;;3.50;1.40;;;;;;;10.97;79.30;100020.66;5045861;28;20024;-87
2022/10/10 06:48:13;;;;;;;5.40;1.58;;;;;;;11.01;79.33;100025.06;5028801;28;20029;-90
2022/10/10 06:50:39;;;;;;;5.32;1.63;;;;;;;11.10;78.65;100022.25;5061123;28;20036;-87
2022/10/10 06:53:07;;;;;;;5.28;1.65;;;;;;;11.08;79.04;100019.03;5060442;28;20087;-87
2022/10/10 06:55:32;;;;;;;5.75;1.50;;;;;;;11.14;78.91;100018.50;5060720;28;20143;-92
2022/10/10 06:57:58;;;;;;;3.05;1.30;;;;;;;11.22;79.72;100016.78;5061239;28;20408;-90
2022/10/10 07:00:24;;;;;;;4.75;1.70;;;;;;;11.26;78.72;100025.09;5059445;28;20036;-88
2022/10/10 07:02:49;;;;;;;4.32;1.50;;;;;;;11.33;78.53;100014.41;5062639;28;20024;-92
2022/10/10 07:05:16;;;;;;;3.80;1.45;;;;;;;11.31;78.65;100022.94;5044180;28;20063;-92
2022/10/10 07:07:45;;;;;;;3.95;1.30;;;;;;;11.33;79.01;100009.75;5064113;28;20021;-92
2022/10/10 07:10:13;;;;;;;3.83;1.33;;;;;;;11.40;78.60;100020.06;5047663;28;20033;-92
2022/10/10 07:12:39;;;;;;;3.10;1.00;;;;;;;11.48;78.76;100016.44;5062942;28;20104;-90
2022/10/10 07:15:05;;;;;;;;;;;;;;;11.57;78.32;100019.03;5062488;28;20096;-92
2022/10/10 07:17:32;;;;;;;6.00;1.50;;;;;;;11.57;78.68;100021.75;5065391;28;19947;-86
2022/10/10 07:19:57;;;;;;;4.07;1.38;;;;;;;11.64;78.48;100009.13;5046426;28;20028;-86
2022/10/10 07:22:23;;;;;;;3.63;1.70;;;;;;;11.70;78.22;100018.66;5048066;28;20036;-89
2022/10/10 07:24:48;;;;;;;3.03;1.40;;;;;;;11.74;78.18;100016.03;5044183;28;20036;-92
2022/10/10 07:27:14;;;;;;;2.95;1.20;;;;;;;11.91;77.57;100018.53;5045675;28;20025;-89
2022/10/10 07:29:49;;;;;;;2.63;1.27;;;;;;;11.98;77.48;100020.69;5043361;28;20029;-91
2022/10/10 07:32:14;;;;;;;4.43;1.50;;;;;;;12.00;77.45;100019.19;5061685;28;20032;-89
2022/10/10 07:34:40;;;;;;;4.13;1.52;;;;;;;12.03;77.57;100034.06;5043667;28;20080;-90
2022/10/10 07:37:05;;;;;;;5.15;2.08;;;;;;;12.03;77.68;100025.88;5060566;28;20029;-89
2022/10/10 07:39:31;;;;;;;3.30;1.20;;;;;;;12.06;77.69;100030.63;5044102;28;20075;-92
2022/10/10 07:41:57;;;;;;;3.10;1.20;;;;;;;12.16;77.73;100026.63;5068128;28;20251;-89
2022/10/10 07:44:23;;;;;;;3.45;1.50;;;;;;;12.18;77.50;100027.88;5041717;28;20029;-90
2022/10/10 07:46:49;;;;;;;4.40;1.33;;;;;;;12.26;77.48;100031.59;5042969;28;20021;-92
2022/10/10 07:49:14;;;;;;;6.97;2.25;;;;;;;12.32;77.31;100028.28;5044258;28;20031;-89
2022/10/10 07:51:39;;;;;;;3.42;1.50;;;;;;;12.42;77.17;100028.91;5066360;28;20044;-88
2022/10/10 07:54:05;;;;;;;3.80;1.70;;;;;;;12.43;77.23;100035.94;5062211;28;20053;-92
2022/10/10 07:56:31;;;;;;;4.25;1.42;;;;;;;12.47;76.95;100036.84;5056518;28;20045;-92
2022/10/10 07:58:58;;;;;;;5.00;1.60;;;;;;;12.49;77.26;100040.03;5063029;28;20063;-90
2022/10/10 08:01:24;;;;;;;4.97;1.60;;;;;;;12.49;77.12;100037.31;5060376;28;20023;-88
2022/10/10 08:03:49;;;;;;;4.88;1.52;;;;;;;12.50;77.26;100033.44;5060768;28;20029;-90
2022/10/10 08:06:16;;;;;;;4.25;1.52;;;;;;;12.46;77.57;100036.06;5058584;28;20511;-87
2022/10/10 08:08:48;;;;;;;5.55;1.80;;;;;;;12.51;77.14;100049.47;5058864;28;20017;-89
2022/10/10 08:11:13;;;;;;;5.50;1.63;;;;;;;12.57;77.35;100041.78;5066584;28;20037;-94
2022/10/10 08:13:41;;;;;;;3.47;1.55;;;;;;;12.59;77.14;100039.50;5067387;28;20017;-92
2022/10/10 08:16:07;;;;;;;6.75;1.38;;;;;;;12.61;77.07;100037.25;5059160;28;20033;-91
2022/10/10 08:18:33;;;;;;;;;;;;;;;12.67;77.00;100037.78;5059323;28;20025;-91
2022/10/10 08:21:21;;;;;;;4.40;1.77;;;;;;;12.72;77.16;100038.31;5059752;28;19962;-91
2022/10/10 08:23:47;;;;;;;3.85;1.73;;;;;;;12.76;77.21;100038.38;5067849;28;20032;-90
2022/10/10 08:26:16;;;;;;;6.80;1.70;;;;;;;12.86;76.79;100037.88;5067260;28;20110;-89
2022/10/10 08:28:43;;;;;;;3.20;1.58;;;;;;;12.86;76.68;100029.69;5065800;28;20025;-90
2022/10/10 08:31:12;;;;;;;4.45;1.30;;;;;;;12.91;77.11;100048.53;5053133;28;20031;-93
2022/10/10 08:33:38;;;;;;;3.72;1.50;;;;;;;12.97;76.29;100043.63;5069240;28;20025;-91
2022/10/10 08:36:09;;;;;;;3.00;1.50;;;;;;;12.98;76.64;100045.22;5065049;28;20020;-91
2022/10/10 08:38:36;;;;;;;3.83;1.50;;;;;;;13.11;76.21;100044.78;5066925;28;20021;-91
2022/10/10 08:41:09;;;;;;;;;;;;;;;13.21;76.03;100048.94;5063560;28;20056;-94
2022/10/10 08:43:40;;;;;;;4.03;1.40;;;;;;;13.32;75.18;100044.53;5059270;28;19912;-89
2022/10/10 08:46:31;;;;;;;5.38;1.90;;;;;;;13.45;74.55;100056.16;5063555;28;20032;-89
2022/10/10 08:48:59;;;;;;;5.18;1.63;;;;;;;13.59;74.45;100048.25;5056488;28;20029;-94
2022/10/10 08:51:31;;;;;;;3.25;1.25;;;;;;;13.71;74.57;100050.09;5059405;28;20102;-92
2022/10/10 08:54:03;;;;;;;3.35;1.50;;;;;;;13.85;73.18;100053.16;5061626;28;20080;-92
2022/10/10 08:56:30;;;;;;;4.80;1.48;;;;;;;13.96;72.78;100062.38;5057917;28;20044;-89
2022/10/10 08:59:10;;;;;;;4.95;1.60;;;;;;;14.04;72.60;100063.31;5059874;28;20139;-87
2022/10/10 09:01:38;;;;;;;3.05;1.33;;;;;;;14.02;72.53;100060.94;5061075;28;20025;-89
2022/10/10 09:04:07;;;;;;;3.67;1.45;;;;;;;14.09;72.58;100065.78;5059798;28;20247;-90
2022/10/10 09:06:56;;;;;;;3.38;1.52;;;;;;;14.18;72.78;100069.09;5059573;28;20028;-90
2022/10/10 09:09:37;;;;;;;5.30;1.33;;;;;;;14.32;71.93;100068.59;5057179;28;20474;-90
2022/10/10 09:12:17;;;;;;;5.05;2.13;;;;;;;14.30;71.61;100059.97;5056685;28;20231;-90
2022/10/10 09:15:05;;;;;;;5.00;1.58;;;;;;;14.41;71.40;100060.94;5056372;28;20025;-89
2022/10/10 09:17:38;;;;;;;6.63;2.42;;;;;;;14.55;71.09;100058.50;5059640;28;20021;-91
2022/10/10 09:20:05;;;;;;;4.43;1.40;;;;;;;14.63;69.96;100059.47;5059780;28;20043;-90
2022/10/10 09:22:41;;;;;;;3.95;1.38;;;;;;;14.58;69.95;100060.53;5056623;28;20457;-89
2022/10/10 09:25:28;;;;;;;3.70;1.30;;;;;;;14.64;69.75;100069.25;5059101;28;20043;-90
2022/10/10 09:28:00;;;;;;;;;;;;;;;14.64;69.41;100069.25;5057774;28;20021;-90
2022/10/10 09:30:31;;;;;;;4.90;1.30;;;;;;;14.71;69.35;100070.16;5055260;28;20365;-89
2022/10/10 09:33:06;;;;;;;4.15;1.58;;;;;;;14.78;69.21;100068.72;5057488;28;20033;-88
2022/10/10 09:35:39;;;;;;;4.70;1.98;;;;;;;14.82;69.48;100080.56;5057765;28;20113;-86
2022/10/10 09:38:30;;;;;;;3.55;1.40;;;;;;;14.91;69.27;100079.16;5058074;28;20025;-89
2022/10/10 09:41:04;;;;;;;3.63;1.38;;;;;;;14.95;69.33;100080.03;5058005;28;20028;-88
2022/10/10 09:43:32;;;;;;;3.13;1.30;;;;;;;15.15;69.47;100078.00;5056828;28;20430;-88
2022/10/10 09:45:58;;;;;;;5.85;1.90;;;;;;;15.28;68.60;100086.81;5057300;28;20059;-87
2022/10/10 09:48:37;;;;;;;4.75;1.20;;;;;;;15.36;68.14;100074.81;5055864;28;20020;-91
2022/10/10 09:51:06;;;;;;;4.18;1.65;;;;;;;15.52;68.10;100078.22;5054770;28;20047;-89
2022/10/10 09:53:32;;;;;;;9.23;1.98;;;;;;;15.72;67.63;100073.44;5054917;28;20053;-85
2022/10/10 09:56:01;;;;;;;3.72;1.65;;;;;;;15.83;67.11;100068.09;5053230;28;20080;-86
2022/10/10 09:58:47;;;;;;;3.95;1.38;;;;;;;15.82;66.26;100069.28;5057387;28;20040;-89
2022/10/10 10:01:33;;;;;;;4.33;1.30;;;;;;;15.71;66.03;100065.56;5057121;28;20028;-88
2022/10/10 10:04:15;;;;;;;9.27;1.88;;;;;;;15.48;66.70;100069.13;5053839;28;20369;-87
2022/10/10 10:06:44;;;;;;;5.57;1.70;;;;;;;15.46;67.11;100062.44;5053929;28;20028;-83
2022/10/10 10:09:16;;;;;;;3.83;1.38;;;;;;;15.48;67.12;100062.88;5053302;28;20074;-85
2022/10/10 10:11:45;;;;;;;5.35;1.63;;;;;;;15.43;67.12;100065.91;5035885;28;20059;-84
2022/10/10 10:14:25;;;;;;;5.18;1.23;;;;;;;15.40;67.33;100066.63;5035806;28;20017;-86
2022/10/10 10:16:53;;;;;;;2.97;1.30;;;;;;;15.39;67.64;100070.53;5053849;28;20116;-86
2022/10/10 10:19:41;;;;;;;6.25;1.40;;;;;;;15.40;67.55;100074.88;5018998;28;20021;-87
2022/10/10 10:22:36;;;;;;;4.78;1.30;;;;;;;15.31;67.91;100075.13;5053719;28;20071;-85
2022/10/10 10:25:36;;;;;;;3.75;1.42;;;;;;;15.37;67.98;100072.88;5034388;28;20039;-85
2022/10/10 10:28:19;;;;;;;5.97;1.50;;;;;;;15.44;67.51;100086.69;5053197;28;20021;-85
2022/10/10 10:30:45;;;;;;;5.05;1.55;;;;;;;15.43;67.19;100096.88;5055179;28;20103;-87
2022/10/10 10:33:20;;;;;;;4.40;1.42;;;;;;;15.47;67.63;100089.50;5036941;28;20052;-86
2022/10/10 10:35:58;;;;;;;4.45;1.70;;;;;;;15.45;67.57;100088.25;5038280;28;20029;-85
2022/10/10 10:38:45;;;;;;;3.58;1.30;;;;;;;15.57;67.10;100093.56;5054864;28;20029;-86
2022/10/10 10:41:35;;;;;;;3.40;1.65;;;;;;;15.70;66.84;100097.72;5056352;28;20419;-85
2022/10/10 10:44:15;;;;;;;4.53;1.58;;;;;;;15.81;66.58;100087.69;5053005;28;20032;-85
2022/10/10 10:47:06;;;;;;;3.97;1.27;;;;;;;15.83;66.76;100096.34;5052347;28;20033;-86
2022/10/10 10:49:57;;;;;;;3.70;1.25;;;;;;;15.88;66.25;100090.53;5037551;28;20393;-86
2022/10/10 10:52:25;;;;;;;3.72;1.40;;;;;;;15.92;66.17;100094.13;5037767;28;20033;-87
2022/10/10 10:55:13;;;;;;;4.53;1.70;;;;;;;15.86;65.76;100095.59;5058460;28;20041;-85
2022/10/10 10:57:40;;;;;;;4.70;1.35;;;;;;;15.86;66.70;100095.59;5056520;28;20036;-86
2022/10/10 11:00:14;;;;;;;5.05;1.63;;;;;;;15.84;66.89;100100.69;5056314;28;20049;-85
2022/10/10 11:03:30;;;;;;;4.80;1.35;;;;;;;15.86;66.88;100097.56;5041786;28;20044;-86
2022/10/10 11:06:33;;;;;;;4.72;1.50;;;;;;;16.00;66.66;100088.75;4984574;28;20038;-76
2022/10/10 11:09:12;;;;;;;3.92;1.50;;;;;;;16.10;65.80;100099.84;5055473;28;20458;-83
2022/10/10 11:11:58;;;;;;;4.70;1.75;;;;;;;16.09;65.77;100091.97;5037177;28;20064;-83
2022/10/10 11:14:52;;;;;;;5.47;1.40;;;;;;;16.15;65.70;100082.28;5037044;28;20436;-78
2022/10/10 11:17:46;;;;;;;5.60;1.67;;;;;;;16.33;64.98;100094.28;5054811;28;20043;-77
2022/10/10 11:20:30;;;;;;;5.28;1.65;;;;;;;16.35;64.66;100091.94;5023720;28;20033;-79
2022/10/10 11:23:02;;;;;;;3.67;1.55;;;;;;;16.34;64.77;100090.38;5054640;28;20028;-78
2022/10/10 11:25:53;;;;;;;6.30;1.80;;;;;;;16.51;64.91;100098.03;5054681;28;20017;-78
2022/10/10 11:28:30;;;;;;;2.85;1.20;;;;;;;16.53;64.39;100098.44;5054402;28;20458;-78
2022/10/10 11:31:04;;;;;;;4.40;1.50;;;;;;;16.49;64.55;100097.63;5054598;28;20056;-79
2022/10/10 11:33:34;;;;;;;4.65;1.75;;;;;;;16.53;64.72;100094.91;5054936;28;20028;-79
2022/10/10 11:36:08;;;;;;;3.15;1.42;;;;;;;16.55;64.85;100092.56;5054912;28;20077;-79
2022/10/10 11:38:56;;;;;;;4.95;1.50;;;;;;;16.63;65.17;100088.75;5054939;28;20071;-80
2022/10/10 11:41:29;;;;;;;5.15;1.67;;;;;;;16.66;64.63;100087.19;5055014;28;20119;-78
2022/10/10 11:44:02;;;;;;;5.20;1.83;;;;;;;16.70;65.12;100088.84;5054963;28;20419;-79
2022/10/10 11:46:50;;;;;;;8.07;1.95;;;;;;;16.86;63.94;100083.13;5054432;28;20393;-78